createdAt,value
2022-12-09T00:03:05.809Z,4.58
2022-12-09T00:08:09.940Z,4.74
2022-12-09T00:13:15.742Z,4.89
2022-12-09T00:18:19.965Z,4.77
2022-12-09T00:23:24.280Z,4.72
2022-12-09T00:28:29.724Z,5.19
2022-12-09T00:33:34.583Z,4.98
2022-12-09T00:38:39.715Z,5.68
2022-12-09T00:43:45.876Z,5.83
2022-12-09T00:48:49.982Z,6.01
2022-12-09T00:53:55.957Z,6.50
2022-12-09T00:59:01.816Z,6.54
2022-12-09T01:04:08.764Z,6.35
2022-12-09T01:09:14.098Z,6.44
2022-12-09T01:14:19.488Z,6.40
2022-12-09T01:19:23.514Z,5.87
2022-12-09T01:24:28.146Z,6.48
2022-12-09T01:29:33.525Z,6.08
2022-12-09T01:34:37.695Z,5.93
2022-12-09T01:39:42.104Z,7.35
2022-12-09T01:45:19.177Z,4.45
2022-12-09T01:50:26.628Z,5.51
2022-12-09T01:55:31.717Z,5.24
2022-12-09T02:00:35.892Z,4.52
2022-12-09T02:05:42.711Z,4.09
2022-12-09T02:10:58.022Z,3.50
2022-12-09T02:16:06.797Z,3.65
2022-12-09T02:21:17.636Z,4.19
2022-12-09T02:26:27.458Z,4.84
2022-12-09T02:31:54.375Z,4.92
2022-12-09T02:37:09.988Z,5.68
2022-12-09T02:42:18.693Z,6.11
2022-12-09T02:47:29.067Z,6.61
2022-12-09T02:52:37.131Z,6.49
2022-12-09T02:57:42.379Z,6.76
2022-12-09T03:02:52.645Z,6.69
2022-12-09T03:08:08.308Z,6.18
2022-12-09T03:13:17.118Z,6.17
2022-12-09T03:18:23.026Z,5.71
2022-12-09T03:23:30.400Z,5.10
2022-12-09T03:28:41.445Z,5.05
2022-12-09T03:33:48.136Z,5.74
2022-12-09T03:38:55.638Z,6.33
2022-12-09T03:44:04.776Z,6.11
2022-12-09T03:49:09.795Z,6.38
2022-12-09T03:54:21.600Z,6.02
2022-12-09T03:59:28.817Z,6.04
2022-12-09T04:04:33.164Z,5.90
2022-12-09T04:09:39.028Z,5.85
2022-12-09T04:14:43.597Z,5.70
2022-12-09T04:19:47.500Z,6.10
2022-12-09T04:24:53.051Z,6.03
2022-12-09T04:29:56.994Z,5.15
2022-12-09T04:35:00.970Z,5.53
2022-12-09T04:40:07.846Z,5.52
2022-12-09T04:45:12.676Z,5.94
2022-12-09T04:50:17.122Z,6.00
2022-12-09T04:55:22.612Z,6.34
2022-12-09T05:00:26.887Z,6.54
2022-12-09T05:05:31.430Z,5.99
2022-12-09T05:10:37.087Z,6.10
2022-12-09T05:15:41.582Z,5.65
2022-12-09T05:20:45.644Z,5.86
2022-12-09T05:25:51.224Z,5.78
2022-12-09T05:31:01.024Z,5.37
2022-12-09T05:36:05.675Z,5.10
2022-12-09T05:41:12.006Z,4.10
2022-12-09T05:46:16.755Z,3.87
2022-12-09T05:51:25.316Z,3.77
2022-12-09T05:56:31.089Z,3.79
2022-12-09T06:01:35.382Z,3.95
2022-12-09T06:06:39.767Z,3.43
2022-12-09T06:11:45.538Z,3.12
2022-12-09T06:16:49.543Z,3.07
2022-12-09T06:21:53.927Z,2.71
2022-12-09T06:26:59.601Z,3.08
2022-12-09T06:32:04.747Z,3.93
2022-12-09T06:37:08.815Z,3.48
2022-12-09T06:42:15.000Z,3.67
2022-12-09T06:47:19.254Z,4.05
2022-12-09T06:52:23.460Z,4.48
2022-12-09T06:57:28.894Z,4.34
2022-12-09T07:02:36.654Z,5.32
2022-12-09T07:07:41.848Z,5.54
2022-12-09T07:12:48.262Z,5.27
2022-12-09T07:17:52.167Z,5.01
2022-12-09T07:22:57.430Z,5.63
2022-12-09T07:28:03.090Z,5.39
2022-12-09T07:33:07.185Z,4.88
2022-12-09T07:38:11.522Z,5.61
2022-12-09T07:43:16.852Z,5.38
2022-12-09T07:48:20.965Z,5.56
2022-12-09T07:53:24.971Z,5.75
2022-12-09T07:58:31.101Z,6.67
2022-12-09T08:03:35.168Z,7.09
2022-12-09T08:08:40.907Z,6.24
2022-12-09T08:13:46.913Z,6.78
2022-12-09T08:18:51.796Z,7.24
2022-12-09T08:23:56.859Z,7.05
2022-12-09T08:29:02.774Z,7.14
2022-12-09T08:34:07.190Z,6.35
2022-12-09T08:39:12.343Z,6.20
2022-12-09T08:44:19.625Z,5.88
2022-12-09T08:49:25.155Z,5.99
2022-12-09T08:54:30.122Z,6.12
2022-12-09T08:59:39.983Z,6.41
2022-12-09T09:04:48.516Z,6.37
2022-12-09T09:09:53.029Z,6.20
2022-12-09T09:14:59.238Z,7.26
2022-12-09T09:20:03.373Z,7.38
2022-12-09T09:25:08.627Z,7.52
2022-12-09T09:30:15.842Z,7.28
2022-12-09T09:35:20.127Z,6.96
2022-12-09T09:40:25.053Z,6.87
2022-12-09T09:45:30.790Z,7.33
2022-12-09T09:50:41.790Z,7.12
2022-12-09T09:55:50.430Z,7.34
2022-12-09T10:01:00.928Z,8.07
2022-12-09T10:06:13.872Z,7.42
2022-12-09T10:11:22.462Z,6.91
2022-12-09T10:16:38.022Z,7.19
2022-12-09T10:21:45.394Z,7.43
2022-12-09T10:26:58.581Z,7.53
2022-12-09T10:32:04.460Z,7.11
2022-12-09T10:37:20.463Z,6.91
2022-12-09T10:42:44.810Z,5.39
2022-12-09T10:47:53.967Z,5.00
2022-12-09T10:53:00.511Z,5.94
2022-12-09T10:58:20.435Z,5.74
2022-12-09T11:03:31.521Z,5.37
2022-12-09T11:08:36.353Z,5.21
2022-12-09T11:13:44.325Z,5.11
2022-12-09T11:18:50.607Z,5.80
2022-12-09T11:24:02.511Z,5.72
2022-12-09T11:29:17.759Z,6.04
2022-12-09T11:34:27.452Z,5.86
2022-12-09T11:39:41.557Z,5.55
2022-12-09T11:44:53.873Z,6.20
2022-12-09T11:50:07.996Z,7.00
2022-12-09T11:55:17.359Z,5.93
2022-12-09T12:00:25.185Z,6.07
2022-12-09T12:05:35.609Z,5.68
2022-12-09T12:10:43.655Z,5.96
2022-12-09T12:16:00.683Z,6.12
2022-12-09T12:21:42.897Z,5.67
2022-12-09T12:26:55.870Z,6.10
2022-12-09T12:32:25.519Z,7.30
2022-12-09T12:37:45.771Z,7.61
2022-12-09T12:43:21.277Z,7.15
2022-12-09T12:48:34.176Z,7.31
2022-12-09T12:53:46.968Z,8.09
2022-12-09T12:59:03.883Z,7.91
2022-12-09T13:04:20.960Z,8.30
2022-12-09T13:09:35.391Z,7.62
2022-12-09T13:14:53.599Z,8.12
2022-12-09T13:20:02.261Z,8.10
2022-12-09T13:25:18.417Z,8.50
2022-12-09T13:30:23.742Z,7.97
2022-12-09T13:35:35.838Z,7.53
2022-12-09T13:40:41.191Z,7.91
2022-12-09T13:45:52.270Z,7.68
2022-12-09T13:50:59.699Z,6.95
2022-12-09T13:56:08.050Z,7.06
2022-12-09T14:01:23.174Z,7.32
2022-12-09T14:06:32.337Z,7.61
2022-12-09T14:11:49.226Z,7.08
2022-12-09T14:16:54.358Z,7.02
2022-12-09T14:22:31.458Z,7.30
2022-12-09T14:27:36.875Z,6.21
2022-12-09T14:32:55.204Z,7.24
2022-12-09T14:38:11.285Z,7.36
2022-12-09T14:43:32.642Z,6.91
2022-12-09T14:48:41.649Z,6.91
2022-12-09T14:53:49.508Z,6.77
2022-12-09T14:58:57.504Z,6.65
2022-12-09T15:04:03.049Z,6.22
2022-12-09T15:09:07.133Z,5.79
2022-12-09T15:14:25.217Z,4.58
2022-12-09T15:24:57.154Z,4.14
2022-12-09T15:30:01.648Z,4.94
2022-12-09T15:35:26.451Z,4.94
2022-12-09T15:40:34.538Z,4.34
2022-12-09T15:45:44.347Z,4.77
2022-12-09T15:50:54.277Z,4.88
2022-12-09T15:56:01.917Z,4.30
2022-12-09T16:01:06.131Z,4.76
2022-12-09T16:06:11.677Z,3.95
2022-12-09T16:11:35.117Z,4.54
2022-12-09T16:16:43.996Z,3.92
2022-12-09T16:21:54.947Z,4.29
2022-12-09T16:27:00.171Z,4.56
2022-12-09T16:32:23.811Z,3.98
2022-12-09T16:37:42.254Z,4.18
2022-12-09T16:42:46.275Z,3.98
2022-12-09T16:47:54.593Z,4.26
2022-12-09T16:53:01.637Z,4.80
2022-12-09T16:58:05.943Z,4.16
2022-12-09T17:03:17.127Z,4.81
2022-12-09T17:08:22.745Z,4.99
2022-12-09T17:13:26.613Z,4.67
2022-12-09T17:18:30.901Z,4.66
2022-12-09T17:23:39.946Z,4.66
2022-12-09T17:28:45.993Z,4.74
2022-12-09T17:33:50.315Z,4.48
2022-12-09T17:38:55.851Z,4.67
2022-12-09T17:44:02.032Z,4.47
2022-12-09T17:49:06.021Z,4.17
2022-12-09T17:54:11.478Z,4.03
2022-12-09T17:59:17.635Z,3.70
2022-12-09T18:04:21.597Z,3.21
2022-12-09T18:09:27.055Z,3.02
2022-12-09T18:14:31.258Z,3.14
2022-12-09T18:19:35.538Z,3.37
2022-12-09T18:24:42.187Z,2.91
2022-12-09T18:29:46.558Z,2.74
2022-12-09T18:34:51.115Z,2.23
2022-12-09T18:40:00.986Z,3.10
2022-12-09T18:45:05.575Z,2.38
2022-12-09T18:50:10.577Z,2.79
2022-12-09T18:55:16.134Z,2.41
2022-12-09T19:00:20.589Z,2.83
2022-12-09T19:05:24.498Z,2.80
2022-12-09T19:10:29.846Z,3.09
2022-12-09T19:15:33.880Z,2.95
2022-12-09T19:20:38.039Z,2.71
2022-12-09T19:25:43.463Z,2.58
2022-12-09T19:30:49.926Z,2.79
2022-12-09T19:35:54.832Z,2.74
2022-12-09T19:41:02.736Z,3.31
2022-12-09T19:46:08.877Z,3.24
2022-12-09T19:51:15.795Z,3.39
2022-12-09T19:56:21.764Z,3.05
2022-12-09T20:01:28.037Z,3.04
2022-12-09T20:06:32.538Z,3.39
2022-12-09T20:11:38.385Z,2.18
2022-12-09T20:16:42.946Z,2.45
2022-12-09T20:21:47.260Z,2.31
2022-12-09T20:26:52.788Z,2.44
2022-12-09T20:31:57.155Z,2.22
2022-12-09T20:37:02.941Z,2.97
2022-12-09T20:42:08.585Z,3.07
2022-12-09T20:47:12.860Z,3.79
2022-12-09T20:52:16.842Z,3.93
2022-12-09T20:57:22.215Z,3.62
2022-12-09T21:02:26.186Z,3.20
2022-12-09T21:07:45.090Z,3.26
2022-12-09T21:12:50.450Z,3.20
2022-12-09T21:17:55.216Z,2.94
2022-12-09T21:23:25.117Z,3.52
2022-12-09T21:28:24.466Z,2.89
2022-12-09T21:33:28.469Z,3.31
2022-12-09T21:38:32.565Z,3.11
2022-12-09T21:43:39.059Z,3.32
2022-12-09T21:48:43.384Z,3.75
2022-12-09T21:53:47.871Z,3.60
2022-12-09T21:58:55.206Z,2.92
2022-12-09T22:04:00.656Z,3.24
2022-12-09T22:09:07.087Z,3.94
2022-12-09T22:14:12.509Z,3.68
2022-12-09T22:19:18.350Z,3.49
2022-12-09T22:24:22.336Z,3.51
2022-12-09T22:29:34.160Z,3.46
2022-12-09T22:34:40.887Z,3.71
2022-12-09T22:39:47.641Z,3.80
2022-12-09T22:44:53.049Z,4.28
2022-12-09T22:49:57.311Z,3.48
2022-12-09T22:55:08.488Z,3.09
2022-12-09T23:00:14.666Z,3.98
2022-12-09T23:05:18.915Z,3.67
2022-12-09T23:10:22.849Z,3.64
2022-12-09T23:15:28.234Z,4.03
2022-12-09T23:20:32.415Z,4.11
2022-12-09T23:25:36.626Z,3.94
2022-12-09T23:30:41.997Z,4.03
2022-12-09T23:35:45.865Z,3.87
2022-12-09T23:40:53.466Z,4.02
2022-12-09T23:46:01.156Z,3.89
2022-12-09T23:51:10.862Z,3.74
2022-12-09T23:56:16.987Z,3.93
